Time;durP1;ratioP1;P1;durP2;ratioP2;P2;SDS_P1;SDS_P2;PMS_P1;PMS_P2;Temp;Humidity;BMP_temperature;BMP_pressure;BME280_temperature;BME280_humidity;BME280_pressure;Samples;Min_cycle;Max_cycle;Signal;HPM_P1;HPM_P2
2022/01/11 00:00:10;;;;;;;85.33;54.90;;;-1.50;99.90;;;;;;5006753;28;20912;-49
2022/01/11 00:02:42;;;;;;;92.13;52.73;;;-1.50;99.90;;;;;;5008230;28;20480;-49
2022/01/11 00:05:17;;;;;;;78.90;52.13;;;-1.50;99.90;;;;;;5006804;28;20484;-49
2022/01/11 00:07:44;;;;;;;82.53;53.20;;;-1.50;99.90;;;;;;5006545;28;20975;-48
2022/01/11 00:10:13;;;;;;;88.90;54.83;;;-1.50;99.90;;;;;;5008803;28;20467;-48
2022/01/11 00:12:40;;;;;;;90.93;56.17;;;-1.50;99.90;;;;;;5007414;28;20533;-48
2022/01/11 00:15:08;;;;;;;87.73;55.47;;;-1.50;99.90;;;;;;5006016;28;20610;-49
2022/01/11 00:17:34;;;;;;;86.87;56.80;;;-1.60;99.90;;;;;;5007587;28;20488;-48
2022/01/11 00:20:02;;;;;;;90.10;57.70;;;-1.60;99.90;;;;;;5007751;28;20584;-47
2022/01/11 00:22:32;;;;;;;83.73;53.53;;;-1.70;99.90;;;;;;5007176;28;20514;-48
2022/01/11 00:24:58;;;;;;;85.63;53.37;;;-1.60;99.90;;;;;;5007206;28;20483;-48
2022/01/11 00:27:25;;;;;;;88.53;54.13;;;-1.60;97.80;;;;;;5008159;28;20447;-48
2022/01/11 00:29:53;;;;;;;86.27;53.47;;;-1.70;99.90;;;;;;5006581;28;20280;-49
2022/01/11 00:32:29;;;;;;;80.97;53.57;;;-1.70;99.90;;;;;;5006606;28;20689;-47
2022/01/11 00:34:56;;;;;;;91.77;55.17;;;-1.70;98.00;;;;;;5006104;28;20862;-49
2022/01/11 00:37:25;;;;;;;87.90;54.90;;;-1.80;97.70;;;;;;5008427;28;20459;-48
2022/01/11 00:39:52;;;;;;;86.03;54.40;;;-1.80;99.90;;;;;;5007887;28;20464;-49
2022/01/11 00:42:21;;;;;;;85.33;56.10;;;-1.80;98.80;;;;;;5008019;28;20537;-48
2022/01/11 00:44:47;;;;;;;86.23;52.70;;;-1.90;88.10;;;;;;5003094;28;20486;-47
2022/01/11 00:47:15;;;;;;;84.33;55.30;;;-1.90;98.20;;;;;;5005231;28;20546;-49
2022/01/11 00:49:41;;;;;;;88.43;56.10;;;-1.80;70.70;;;;;;5008279;28;20460;-47
2022/01/11 00:52:08;;;;;;;81.13;54.43;;;-1.80;77.20;;;;;;5010075;28;20476;-48
2022/01/11 00:54:36;;;;;;;87.13;55.80;;;-1.70;79.50;;;;;;5002045;28;20898;-48
2022/01/11 00:57:03;;;;;;;89.80;57.03;;;-1.60;89.30;;;;;;5008510;28;21128;-47
2022/01/11 00:59:30;;;;;;;92.13;57.53;;;-1.60;99.90;;;;;;5005413;28;20503;-48
2022/01/11 01:01:56;;;;;;;85.53;55.50;;;-1.50;99.90;;;;;;5005742;28;20570;-48
2022/01/11 01:04:23;;;;;;;91.40;58.67;;;-1.50;99.90;;;;;;5007989;28;20578;-49
2022/01/11 01:06:49;;;;;;;95.03;56.27;;;-1.60;99.90;;;;;;5010563;28;20488;-49
2022/01/11 01:09:16;;;;;;;90.07;59.97;;;-1.60;99.90;;;;;;5004916;28;21025;-48
2022/01/11 01:11:45;;;;;;;95.10;61.63;;;-1.60;99.90;;;;;;5006430;28;20484;-48
2022/01/11 01:14:12;;;;;;;97.17;62.10;;;-1.70;99.90;;;;;;5005507;28;20476;-48
2022/01/11 01:16:39;;;;;;;102.23;64.50;;;-1.80;99.90;;;;;;5007513;28;20599;-49
2022/01/11 01:19:06;;;;;;;97.17;63.40;;;-1.90;99.90;;;;;;5006801;28;20571;-49
2022/01/11 01:21:37;;;;;;;103.20;63.90;;;-1.80;99.90;;;;;;5005165;28;20554;-49
2022/01/11 01:24:05;;;;;;;101.80;62.03;;;-1.90;99.90;;;;;;5004951;28;20482;-49
2022/01/11 01:26:32;;;;;;;103.87;64.80;;;-1.80;99.90;;;;;;5005060;28;20558;-49
2022/01/11 01:29:00;;;;;;;101.70;66.37;;;-1.80;94.80;;;;;;5007063;28;20554;-48
2022/01/11 01:31:28;;;;;;;104.37;64.90;;;-1.80;93.30;;;;;;5008555;28;20459;-49
2022/01/11 01:33:55;;;;;;;113.90;67.77;;;-1.80;99.90;;;;;;5005591;28;21047;-48
2022/01/11 01:36:21;;;;;;;103.80;63.63;;;-1.80;99.90;;;;;;5008384;28;20558;-49
2022/01/11 01:38:48;;;;;;;97.50;63.43;;;-1.70;99.90;;;;;;5009097;28;20574;-48
2022/01/11 01:41:17;;;;;;;105.90;65.60;;;-1.80;99.90;;;;;;5008302;28;20538;-49
2022/01/11 01:43:45;;;;;;;101.87;63.40;;;-1.80;99.90;;;;;;5009896;28;20518;-49
2022/01/11 01:46:14;;;;;;;97.30;61.40;;;-1.80;99.90;;;;;;5008634;28;20463;-49
2022/01/11 01:48:41;;;;;;;98.20;63.10;;;-1.80;99.90;;;;;;5009251;28;20479;-49
2022/01/11 01:51:12;;;;;;;104.07;63.97;;;-1.70;92.00;;;;;;5009486;28;20495;-47
2022/01/11 01:53:42;;;;;;;99.33;61.93;;;-1.70;99.90;;;;;;5008520;28;20486;-48
2022/01/11 01:56:08;;;;;;;109.50;65.17;;;-1.70;99.90;;;;;;5011415;28;20498;-50
2022/01/11 01:58:35;;;;;;;103.77;64.93;;;-1.70;99.90;;;;;;5009814;28;20546;-48
2022/01/11 02:01:04;;;;;;;103.33;62.10;;;-1.70;99.90;;;;;;5010672;28;20460;-49
2022/01/11 02:03:38;;;;;;;92.63;61.00;;;-1.80;99.90;;;;;;5006900;28;20499;-48
2022/01/11 02:06:05;;;;;;;91.27;58.60;;;-1.80;99.90;;;;;;5011596;28;20467;-48
2022/01/11 02:08:32;;;;;;;101.27;61.70;;;-1.90;99.90;;;;;;5008962;28;20466;-48
2022/01/11 02:10:59;;;;;;;103.03;62.30;;;-2.00;99.90;;;;;;5006195;28;20587;-48
2022/01/11 02:13:25;;;;;;;103.07;61.40;;;-2.00;99.90;;;;;;5008946;28;20530;-49
2022/01/11 02:15:52;;;;;;;101.07;61.07;;;-2.00;92.50;;;;;;5008088;28;20645;-48
2022/01/11 02:18:22;;;;;;;100.27;61.33;;;-2.00;99.90;;;;;;5007192;28;20499;-47
2022/01/11 02:20:52;;;;;;;105.63;64.30;;;-2.00;99.90;;;;;;5009116;28;20470;-49
2022/01/11 02:23:20;;;;;;;95.50;60.63;;;-1.90;99.90;;;;;;5005917;28;20618;-48
2022/01/11 02:25:47;;;;;;;102.00;63.23;;;-2.10;99.90;;;;;;5012230;28;20491;-48
2022/01/11 02:28:16;;;;;;;103.50;61.97;;;-2.10;99.90;;;;;;5010501;28;20500;-47
2022/01/11 02:30:43;;;;;;;96.80;58.37;;;-2.20;99.90;;;;;;5010237;28;20491;-48
2022/01/11 02:33:20;;;;;;;114.40;66.43;;;-2.10;83.20;;;;;;5012642;28;20491;-48
2022/01/11 02:35:50;;;;;;;111.77;64.90;;;-2.10;93.10;;;;;;5009438;28;20967;-48
2022/01/11 02:38:16;;;;;;;117.93;67.90;;;-2.10;98.30;;;;;;5006521;28;20495;-49
2022/01/11 02:40:43;;;;;;;104.97;61.83;;;-2.10;87.70;;;;;;5005396;28;21386;-48
2022/01/11 02:43:11;;;;;;;98.77;62.80;;;-2.00;91.70;;;;;;5012178;28;20514;-49
2022/01/11 02:45:37;;;;;;;105.10;62.53;;;-2.00;92.40;;;;;;5005947;28;20487;-48
2022/01/11 02:48:04;;;;;;;104.80;62.83;;;-1.90;90.50;;;;;;5005912;28;20907;-49
2022/01/11 02:50:31;;;;;;;109.57;63.57;;;-2.00;99.90;;;;;;5006729;28;20495;-48
2022/01/11 02:52:59;;;;;;;104.37;63.23;;;-1.90;99.90;;;;;;5009329;28;20490;-48
2022/01/11 02:55:25;;;;;;;110.57;62.57;;;-2.00;99.90;;;;;;5009647;28;21194;-48
2022/01/11 02:57:52;;;;;;;110.40;62.00;;;-2.00;99.90;;;;;;5008838;28;20516;-49
2022/01/11 03:00:21;;;;;;;109.97;62.30;;;-2.10;99.90;;;;;;5009114;28;20546;-48
2022/01/11 03:02:49;;;;;;;102.30;62.40;;;-2.10;99.90;;;;;;5006326;28;20515;-48
2022/01/11 03:05:15;;;;;;;106.80;62.03;;;-2.00;99.90;;;;;;5008855;28;20526;-48
2022/01/11 03:07:44;;;;;;;102.47;65.10;;;-2.20;99.90;;;;;;5004100;28;21570;-48
2022/01/11 03:10:21;;;;;;;104.23;60.53;;;-2.00;91.40;;;;;;5007533;28;20916;-48
2022/01/11 03:12:47;;;;;;;100.07;59.90;;;-2.10;99.90;;;;;;5009222;28;20451;-48
2022/01/11 03:15:15;;;;;;;102.60;60.43;;;-2.20;99.90;;;;;;5008359;28;20578;-49
2022/01/11 03:17:42;;;;;;;104.77;59.60;;;-2.20;99.90;;;;;;5008214;28;20510;-49
2022/01/11 03:20:10;;;;;;;103.90;58.63;;;-2.20;97.90;;;;;;5008945;28;20558;-48
2022/01/11 03:22:38;;;;;;;103.00;60.43;;;-2.20;99.90;;;;;;5008841;28;20483;-47
2022/01/11 03:25:06;;;;;;;97.40;57.67;;;-2.20;97.90;;;;;;5009691;28;20929;-49
2022/01/11 03:27:34;;;;;;;107.60;62.80;;;-2.20;99.90;;;;;;5009203;28;20483;-48
2022/01/11 03:30:00;;;;;;;98.57;59.30;;;-2.20;88.80;;;;;;5006878;28;20930;-49
2022/01/11 03:32:27;;;;;;;98.27;57.37;;;-2.20;80.80;;;;;;5007988;28;20984;-48
2022/01/11 03:34:54;;;;;;;99.40;57.53;;;-2.20;78.60;;;;;;5008191;28;20611;-49
2022/01/11 03:37:20;;;;;;;94.20;55.47;;;-2.30;64.90;;;;;;5008165;28;20491;-48
2022/01/11 03:39:48;;;;;;;87.77;53.90;;;-2.20;71.90;;;;;;5007850;28;21104;-49
2022/01/11 03:42:15;;;;;;;86.20;52.47;;;-2.20;83.00;;;;;;5007962;28;20471;-48
2022/01/11 03:44:43;;;;;;;93.10;53.50;;;-2.20;83.60;;;;;;5007092;28;20508;-49
2022/01/11 03:47:09;;;;;;;88.73;51.57;;;-2.20;91.00;;;;;;5007390;28;20495;-48
2022/01/11 03:49:36;;;;;;;82.63;49.80;;;-2.40;99.90;;;;;;5007424;28;20492;-48
2022/01/11 03:52:03;;;;;;;83.37;48.63;;;-2.30;79.60;;;;;;5008542;28;20518;-49
2022/01/11 03:54:43;;;;;;;82.97;47.07;;;-2.20;74.70;;;;;;5008177;28;20541;-48
2022/01/11 03:57:10;;;;;;;84.50;49.87;;;-2.20;76.50;;;;;;5007224;28;20470;-48
2022/01/11 03:59:37;;;;;;;91.30;48.47;;;-2.30;90.70;;;;;;5006552;28;20502;-49
2022/01/11 04:02:05;;;;;;;79.73;46.43;;;-2.50;93.00;;;;;;5006701;28;20526;-48
2022/01/11 04:04:32;;;;;;;76.43;46.73;;;-2.30;56.70;;;;;;5006079;28;20570;-48
2022/01/11 04:07:00;;;;;;;92.40;52.57;;;-2.20;72.80;;;;;;5005237;28;20529;-48
2022/01/11 04:09:26;;;;;;;81.57;48.30;;;-2.10;65.50;;;;;;5007971;28;20538;-48
2022/01/11 04:11:53;;;;;;;84.30;47.10;;;-2.10;67.70;;;;;;5007151;28;20546;-48
2022/01/11 04:14:19;;;;;;;84.17;47.47;;;-2.00;77.90;;;;;;5006024;28;20530;-48
2022/01/11 04:16:46;;;;;;;86.27;47.87;;;-1.90;77.30;;;;;;5007319;28;20522;-49
2022/01/11 04:19:14;;;;;;;81.77;48.13;;;-2.00;81.70;;;;;;5006601;28;20467;-48
2022/01/11 04:21:41;;;;;;;75.97;44.57;;;-1.90;95.60;;;;;;5005446;28;20551;-48
2022/01/11 04:24:10;;;;;;;76.50;45.10;;;-1.90;90.80;;;;;;5008875;28;20523;-48
2022/01/11 04:26:37;;;;;;;66.20;42.20;;;-2.00;99.90;;;;;;5006232;28;20546;-49
2022/01/11 04:29:04;;;;;;;73.17;45.57;;;-2.00;99.90;;;;;;5007402;28;20545;-49
2022/01/11 04:31:31;;;;;;;74.47;44.00;;;-2.00;99.90;;;;;;5004549;28;20496;-48
2022/01/11 04:33:57;;;;;;;78.07;44.10;;;-2.10;99.90;;;;;;4999178;28;20503;-47
2022/01/11 04:36:26;;;;;;;76.63;44.80;;;-2.10;99.90;;;;;;5010381;28;20983;-52
2022/01/11 04:38:52;;;;;;;76.97;46.60;;;-2.20;97.40;;;;;;5006372;28;20514;-52
2022/01/11 04:41:19;;;;;;;72.67;44.13;;;-2.10;84.70;;;;;;5006789;28;20495;-52
2022/01/11 04:43:46;;;;;;;75.60;46.00;;;-2.00;88.50;;;;;;5006783;28;20546;-52
2022/01/11 04:46:12;;;;;;;80.33;46.00;;;-1.90;91.10;;;;;;5006868;28;20496;-52
2022/01/11 04:48:39;;;;;;;73.43;44.10;;;-1.90;99.90;;;;;;5006766;28;20961;-52
2022/01/11 04:51:06;;;;;;;72.57;42.10;;;-1.90;99.00;;;;;;5006634;28;22089;-52
2022/01/11 04:53:34;;;;;;;79.93;43.77;;;-1.90;99.90;;;;;;5005589;28;20522;-52
2022/01/11 04:56:01;;;;;;;78.03;43.60;;;-1.90;99.90;;;;;;5006140;28;20550;-51
2022/01/11 04:58:29;;;;;;;72.13;43.23;;;-1.90;99.90;;;;;;5012863;28;20474;-52
2022/01/11 05:00:56;;;;;;;77.27;44.13;;;-1.90;99.90;;;;;;5010623;28;20539;-46
2022/01/11 05:03:23;;;;;;;73.27;43.20;;;-2.00;99.90;;;;;;5012358;28;20557;-55
2022/01/11 05:05:49;;;;;;;80.03;45.73;;;-1.90;99.90;;;;;;5008156;28;20468;-55
2022/01/11 05:08:16;;;;;;;69.90;44.47;;;-2.00;99.90;;;;;;5004981;28;21233;-56
2022/01/11 05:10:44;;;;;;;79.63;43.00;;;-2.00;99.90;;;;;;5005946;28;21064;-56
2022/01/11 05:13:12;;;;;;;83.07;45.30;;;-1.90;99.90;;;;;;5005356;28;20464;-57
2022/01/11 05:15:39;;;;;;;77.17;44.10;;;-1.90;99.90;;;;;;5007169;28;22286;-56
2022/01/11 05:18:07;;;;;;;73.80;41.93;;;-1.90;99.90;;;;;;5008141;28;20737;-51
2022/01/11 05:20:34;;;;;;;74.73;45.40;;;-1.80;99.90;;;;;;5008059;28;21010;-51
2022/01/11 05:23:01;;;;;;;80.57;45.37;;;-1.80;99.90;;;;;;5007091;28;20487;-51
2022/01/11 05:25:27;;;;;;;76.97;43.33;;;-1.90;99.90;;;;;;5005861;28;20477;-52
2022/01/11 05:27:55;;;;;;;67.73;37.10;;;-1.70;99.90;;;;;;5007310;28;21136;-52
2022/01/11 05:30:22;;;;;;;74.03;44.20;;;-1.60;99.90;;;;;;5008648;28;20495;-52
2022/01/11 05:32:49;;;;;;;71.53;41.50;;;-1.60;99.90;;;;;;5004574;28;20586;-52
2022/01/11 05:35:17;;;;;;;76.43;45.03;;;-1.70;99.90;;;;;;5003290;28;20716;-52
2022/01/11 05:37:44;;;;;;;73.57;44.40;;;-1.80;99.90;;;;;;5004258;28;20559;-52
2022/01/11 05:40:12;;;;;;;78.07;45.07;;;-1.80;99.90;;;;;;5005926;28;20539;-51
2022/01/11 05:42:39;;;;;;;78.13;44.97;;;-2.00;99.90;;;;;;5006693;28;21011;-52
2022/01/11 05:45:08;;;;;;;74.37;45.80;;;-1.90;99.90;;;;;;5005797;28;20550;-52
2022/01/11 05:47:35;;;;;;;77.80;45.20;;;-2.00;99.90;;;;;;5004853;28;20478;-52
2022/01/11 05:50:03;;;;;;;64.70;41.27;;;-2.00;99.90;;;;;;5004848;28;20545;-51
2022/01/11 05:52:30;;;;;;;73.03;44.77;;;-1.90;99.90;;;;;;5006719;28;20984;-52
2022/01/11 05:54:57;;;;;;;82.23;45.80;;;-1.90;99.90;;;;;;5010866;28;20505;-51
2022/01/11 05:57:23;;;;;;;74.73;44.97;;;-1.80;99.90;;;;;;5008857;28;20522;-52
2022/01/11 05:59:50;;;;;;;83.90;47.53;;;-1.70;99.90;;;;;;5009807;28;20510;-52
2022/01/11 06:02:18;;;;;;;78.37;46.40;;;-1.70;99.90;;;;;;5005088;28;20521;-52
2022/01/11 06:04:45;;;;;;;78.23;46.30;;;-1.70;99.90;;;;;;5004497;28;20533;-52
2022/01/11 06:07:11;;;;;;;74.07;45.40;;;-1.70;99.90;;;;;;5003796;28;20459;-51
2022/01/11 06:09:38;;;;;;;74.97;44.60;;;-1.70;99.90;;;;;;5003407;28;20468;-52
2022/01/11 06:12:06;;;;;;;65.67;38.90;;;-1.70;99.90;;;;;;5005134;28;20464;-52
2022/01/11 06:14:33;;;;;;;83.57;43.83;;;-1.40;99.90;;;;;;5004678;28;20476;-53
2022/01/11 06:16:59;;;;;;;73.93;41.33;;;-1.30;99.90;;;;;;5005252;28;20464;-52
2022/01/11 06:19:27;;;;;;;76.03;45.17;;;-1.40;99.90;;;;;;5004397;28;21260;-52
2022/01/11 06:21:54;;;;;;;66.33;40.40;;;-1.50;99.90;;;;;;5005524;28;20530;-52
2022/01/11 06:24:20;;;;;;;71.77;41.80;;;-1.70;99.90;;;;;;5011228;28;21047;-52
2022/01/11 06:26:47;;;;;;;69.37;42.00;;;-1.80;99.90;;;;;;5021701;28;20486;-52
2022/01/11 06:29:13;;;;;;;66.67;39.67;;;-1.90;99.90;;;;;;5022851;28;20482;-52
2022/01/11 06:31:40;;;;;;;70.73;40.93;;;-1.90;99.90;;;;;;5006433;28;20879;-52
2022/01/11 06:34:07;;;;;;;66.67;40.70;;;-1.90;99.90;;;;;;5013535;28;21000;-52
2022/01/11 06:36:35;;;;;;;78.33;42.53;;;-1.90;99.90;;;;;;5012216;28;21003;-52
2022/01/11 06:39:02;;;;;;;69.23;42.70;;;-1.80;99.90;;;;;;5013233;28;20513;-51
2022/01/11 06:41:29;;;;;;;71.53;40.43;;;-1.90;99.90;;;;;;4995300;28;20460;-52
2022/01/11 06:43:55;;;;;;;69.83;42.87;;;-1.90;99.90;;;;;;5008592;28;20479;-52
2022/01/11 06:46:23;;;;;;;71.90;43.17;;;-1.90;99.90;;;;;;5002815;28;20452;-52
2022/01/11 06:48:51;;;;;;;72.27;44.43;;;-1.80;99.90;;;;;;5010105;28;20452;-52
2022/01/11 06:51:17;;;;;;;90.93;60.83;;;-1.80;99.90;;;;;;5004769;28;20507;-52
2022/01/11 06:53:46;;;;;;;85.63;55.73;;;-1.80;99.90;;;;;;5018165;28;20478;-52
2022/01/11 06:56:12;;;;;;;138.33;115.60;;;-1.80;99.90;;;;;;5025822;28;20455;-51
2022/01/11 06:58:39;;;;;;;106.97;78.60;;;-1.70;99.90;;;;;;5023473;28;20503;-52
2022/01/11 07:01:06;;;;;;;76.90;44.73;;;-1.70;99.90;;;;;;5014971;28;20878;-52
2022/01/11 07:03:33;;;;;;;78.37;43.87;;;-1.60;99.90;;;;;;5014129;28;20538;-51
2022/01/11 07:05:59;;;;;;;67.93;42.93;;;-1.70;99.90;;;;;;5011553;28;20472;-54
2022/01/11 07:08:26;;;;;;;76.87;43.80;;;-1.70;99.90;;;;;;5011983;28;20451;-52
2022/01/11 07:10:54;;;;;;;73.53;43.17;;;-1.90;99.90;;;;;;5014578;28;20463;-52
2022/01/11 07:13:21;;;;;;;69.63;40.63;;;-1.80;99.90;;;;;;5013288;28;20574;-52
2022/01/11 07:15:47;;;;;;;72.93;42.97;;;-1.70;99.90;;;;;;5019406;28;20528;-52
2022/01/11 07:18:15;;;;;;;75.63;44.30;;;-1.70;99.90;;;;;;5009600;28;20470;-52
2022/01/11 07:20:43;;;;;;;72.43;43.33;;;-1.70;99.90;;;;;;4999228;28;20516;-52
2022/01/11 07:23:10;;;;;;;75.00;43.50;;;-1.70;99.90;;;;;;5011874;28;20460;-52
2022/01/11 07:25:37;;;;;;;72.00;43.17;;;-1.80;99.90;;;;;;5023875;28;20540;-52
2022/01/11 07:28:06;;;;;;;73.77;43.50;;;-1.70;99.90;;;;;;5008145;28;20459;-51
2022/01/11 07:30:33;;;;;;;73.33;42.23;;;-1.80;99.90;;;;;;5009791;28;20468;-52
2022/01/11 07:33:00;;;;;;;77.97;41.70;;;-1.80;99.90;;;;;;5015409;28;20463;-53
2022/01/11 07:35:27;;;;;;;77.00;43.40;;;-1.90;99.90;;;;;;5016747;28;20506;-52
2022/01/11 07:37:53;;;;;;;76.40;41.33;;;-1.90;99.90;;;;;;5010790;28;20466;-52
2022/01/11 07:40:20;;;;;;;68.23;41.43;;;-1.90;99.90;;;;;;5017738;28;21039;-51
2022/01/11 07:42:48;;;;;;;70.53;43.43;;;-1.80;99.90;;;;;;5016715;28;20929;-51
2022/01/11 07:45:17;;;;;;;75.77;42.77;;;-1.80;99.90;;;;;;5020901;28;20494;-53
2022/01/11 07:47:43;;;;;;;71.27;42.07;;;-1.80;99.90;;;;;;5013089;28;20467;-52
2022/01/11 07:50:12;;;;;;;81.80;42.63;;;-1.80;99.90;;;;;;5019774;28;21195;-52
2022/01/11 07:52:38;;;;;;;74.10;42.90;;;-1.80;99.90;;;;;;5021147;28;20462;-52
2022/01/11 07:55:06;;;;;;;74.13;41.70;;;-1.90;99.90;;;;;;5006924;28;20217;-51
2022/01/11 07:57:33;;;;;;;74.70;40.83;;;-1.90;99.90;;;;;;5020561;28;20941;-51
2022/01/11 08:00:00;;;;;;;74.23;41.73;;;-1.80;99.90;;;;;;5009308;28;20467;-51
2022/01/11 08:02:28;;;;;;;70.70;42.27;;;-1.90;99.90;;;;;;4997767;28;20460;-51
2022/01/11 08:04:54;;;;;;;68.20;40.03;;;-1.90;99.90;;;;;;5004583;28;20491;-52
2022/01/11 08:07:21;;;;;;;67.37;39.10;;;-1.90;99.90;;;;;;5004858;28;20529;-52
2022/01/11 08:09:47;;;;;;;77.40;41.70;;;-1.90;99.90;;;;;;5005441;28;20514;-50
2022/01/11 08:12:14;;;;;;;72.63;43.50;;;-1.80;99.90;;;;;;5007139;28;20961;-51
2022/01/11 08:14:41;;;;;;;68.57;41.20;;;-1.80;99.90;;;;;;5011378;28;20479;-52
2022/01/11 08:17:07;;;;;;;70.80;38.57;;;-1.70;99.90;;;;;;5000519;28;20471;-50
2022/01/11 08:19:35;;;;;;;73.13;42.37;;;-1.70;99.90;;;;;;5003325;28;20999;-50
2022/01/11 08:22:02;;;;;;;72.73;41.17;;;-1.70;99.90;;;;;;5009515;28;20460;-51
2022/01/11 08:24:29;;;;;;;69.10;39.77;;;-1.70;99.90;;;;;;5009168;28;20483;-51
2022/01/11 08:26:55;;;;;;;73.93;40.17;;;-1.60;99.90;;;;;;5008170;28;21163;-51
2022/01/11 08:29:22;;;;;;;77.97;43.27;;;-1.60;99.90;;;;;;5005406;28;20944;-51
2022/01/11 08:31:50;;;;;;;69.47;41.47;;;-1.60;99.90;;;;;;5006527;28;20464;-51
2022/01/11 08:34:18;;;;;;;73.83;41.70;;;-1.60;99.90;;;;;;5007344;28;20518;-51
2022/01/11 08:36:49;;;;;;;72.00;40.80;;;-1.60;99.90;;;;;;4998926;28;20476;-51
2022/01/11 08:39:17;;;;;;;77.30;40.97;;;-1.60;99.90;;;;;;5001549;28;20464;-50
2022/01/11 08:41:43;;;;;;;73.30;40.07;;;-1.60;99.90;;;;;;5003911;28;20464;-51
2022/01/11 08:44:10;;;;;;;73.93;40.10;;;-1.50;99.90;;;;;;4994682;28;20570;-50
2022/01/11 08:46:37;;;;;;;70.90;40.97;;;-1.60;99.90;;;;;;4989374;28;20558;-50
2022/01/11 08:49:04;;;;;;;81.30;43.33;;;-1.50;99.90;;;;;;4996202;28;20485;-51
2022/01/11 08:51:31;;;;;;;70.07;40.70;;;-1.50;99.90;;;;;;4998803;28;20460;-52
2022/01/11 08:53:59;;;;;;;76.17;40.63;;;-1.60;99.90;;;;;;5004497;28;20543;-51
2022/01/11 08:56:26;;;;;;;63.90;38.43;;;-1.70;99.90;;;;;;5013054;28;20965;-51
2022/01/11 08:58:52;;;;;;;69.47;40.37;;;-1.60;99.90;;;;;;4997910;28;20496;-51
2022/01/11 09:01:19;;;;;;;66.40;40.53;;;-1.60;99.90;;;;;;5000669;28;20530;-50
2022/01/11 09:03:46;;;;;;;66.30;39.93;;;-1.50;99.90;;;;;;5008526;28;21009;-51
2022/01/11 09:06:12;;;;;;;70.53;37.83;;;-1.50;99.90;;;;;;5016896;28;20545;-51
2022/01/11 09:08:39;;;;;;;67.30;37.90;;;-1.60;99.90;;;;;;5005665;28;20464;-52
2022/01/11 09:11:07;;;;;;;70.43;38.70;;;-1.50;99.90;;;;;;5004652;28;20468;-51
2022/01/11 09:13:36;;;;;;;70.67;39.30;;;-1.80;99.90;;;;;;5003207;28;20475;-52
2022/01/11 09:16:04;;;;;;;71.13;41.23;;;-1.60;99.90;;;;;;4999323;28;20973;-52
2022/01/11 09:18:30;;;;;;;68.43;40.53;;;-1.50;99.90;;;;;;4997310;28;20860;-51
2022/01/11 09:21:00;;;;;;;67.13;36.67;;;-1.50;99.90;;;;;;5007119;28;20464;-51
2022/01/11 09:23:27;;;;;;;66.67;37.63;;;-1.50;99.90;;;;;;5006784;28;20486;-51
2022/01/11 09:25:55;;;;;;;64.20;37.07;;;-1.60;99.90;;;;;;4999547;28;20518;-51
2022/01/11 09:28:24;;;;;;;57.83;36.60;;;-1.50;99.90;;;;;;5001679;28;20463;-52
2022/01/11 09:30:51;;;;;;;67.00;38.37;;;-1.40;99.90;;;;;;5001055;28;20533;-51
2022/01/11 09:33:17;;;;;;;61.23;36.73;;;-1.50;99.90;;;;;;5000532;28;20472;-51
2022/01/11 09:35:45;;;;;;;61.13;36.27;;;-1.40;99.90;;;;;;4999754;28;20510;-51
2022/01/11 09:38:11;;;;;;;62.63;39.17;;;-1.50;99.90;;;;;;4998815;28;20959;-51
2022/01/11 09:40:38;;;;;;;60.43;36.33;;;-1.40;99.90;;;;;;5013045;28;20530;-51
2022/01/11 09:43:05;;;;;;;61.00;38.03;;;-1.30;99.90;;;;;;5015881;28;20930;-51
2022/01/11 09:45:33;;;;;;;60.73;36.47;;;-1.30;99.90;;;;;;5010016;28;20549;-51
2022/01/11 09:48:00;;;;;;;58.80;35.60;;;-1.30;99.90;;;;;;5011030;28;20469;-51
2022/01/11 09:50:27;;;;;;;60.10;36.87;;;-1.30;99.90;;;;;;5005693;28;20460;-51
2022/01/11 09:52:54;;;;;;;65.17;38.90;;;-1.30;99.90;;;;;;5007636;28;20502;-51
2022/01/11 09:55:21;;;;;;;57.90;36.57;;;-1.30;99.90;;;;;;5007324;28;20533;-51
2022/01/11 09:57:49;;;;;;;60.33;37.70;;;-1.30;99.90;;;;;;5001050;28;20588;-51
2022/01/11 10:00:16;;;;;;;66.10;37.70;;;-1.20;99.90;;;;;;5011180;28;21596;-51
2022/01/11 10:02:46;;;;;;;58.83;36.07;;;-1.20;99.90;;;;;;5014949;28;20462;-51
2022/01/11 10:05:14;;;;;;;50.30;34.00;;;-1.20;99.90;;;;;;5007596;28;20574;-51
2022/01/11 10:07:42;;;;;;;60.43;36.97;;;-1.30;99.90;;;;;;5007323;28;20454;-51
2022/01/11 10:10:15;;;;;;;58.10;35.03;;;-1.30;99.90;;;;;;5010679;28;20463;-51
2022/01/11 10:12:46;;;;;;;54.53;32.90;;;-1.20;99.90;;;;;;5007891;28;21020;-50
2022/01/11 10:15:13;;;;;;;57.20;35.23;;;-1.10;99.90;;;;;;5011168;28;21054;-52
2022/01/11 10:17:43;;;;;;;54.30;31.77;;;-1.10;99.90;;;;;;5007684;28;20505;-51
2022/01/11 10:20:13;;;;;;;49.67;31.63;;;-1.10;99.90;;;;;;5006136;28;21644;-51
2022/01/11 10:22:49;;;;;;;46.63;30.13;;;-1.10;80.80;;;;;;5003684;28;20460;-51
2022/01/11 10:25:17;;;;;;;48.37;29.20;;;-1.10;99.90;;;;;;5005249;28;20483;-51
2022/01/11 10:27:44;;;;;;;48.70;31.67;;;-1.20;99.90;;;;;;5007026;28;20480;-51
2022/01/11 10:30:13;;;;;;;53.30;33.90;;;-1.10;99.90;;;;;;5006180;28;21000;-51
2022/01/11 10:32:42;;;;;;;52.63;33.30;;;-1.10;99.90;;;;;;5007638;28;20977;-51
2022/01/11 10:35:12;;;;;;;53.67;33.70;;;-1.10;99.90;;;;;;5007316;28;20483;-51
2022/01/11 10:37:41;;;;;;;53.33;34.17;;;-1.10;85.50;;;;;;5048300;22;21009;-52
2022/01/11 10:40:14;;;;;;;52.30;32.67;;;-1.10;99.90;;;;;;5034847;28;20550;-50
2022/01/11 10:42:45;;;;;;;49.73;31.83;;;-1.10;99.90;;;;;;5038976;28;20508;-51
2022/01/11 10:45:13;;;;;;;55.17;36.00;;;-1.20;27.00;;;;;;5044510;28;20474;-50
2022/01/11 10:47:42;;;;;;;50.90;32.63;;;-1.10;99.90;;;;;;5057035;28;20627;-51
2022/01/11 10:50:13;;;;;;;52.50;33.57;;;-1.20;99.90;;;;;;5042084;28;20532;-51
2022/01/11 10:52:42;;;;;;;52.50;33.60;;;-1.10;99.90;;;;;;5038954;28;21952;-51
2022/01/11 10:55:13;;;;;;;55.50;34.40;;;-1.10;99.90;;;;;;5034722;28;20462;-50
2022/01/11 10:57:41;;;;;;;52.30;33.97;;;-1.10;21.50;;;;;;5035864;28;21019;-52
2022/01/11 11:00:22;;;;;;;52.40;32.87;;;-1.10;24.50;;;;;;5044013;28;20462;-52
2022/01/11 11:02:53;;;;;;;52.17;33.70;;;-1.10;21.90;;;;;;5039500;28;20462;-52
2022/01/11 11:05:29;;;;;;;49.87;32.17;;;-1.00;99.90;;;;;;5040716;28;20489;-51
2022/01/11 11:08:14;;;;;;;50.60;32.93;;;-0.90;99.90;;;;;;5035139;28;20512;-50
2022/01/11 11:10:44;;;;;;;48.77;32.83;;;-1.00;99.90;;;;;;5037348;28;20549;-51
2022/01/11 11:13:20;;;;;;;56.73;33.80;;;-1.00;99.90;;;;;;5041066;28;20512;-51
2022/01/11 11:15:48;;;;;;;56.87;34.77;;;-1.10;82.90;;;;;;5030706;28;20450;-51
2022/01/11 11:18:28;;;;;;;51.10;32.03;;;-1.00;99.90;;;;;;5037973;28;22308;-51
2022/01/11 11:20:57;;;;;;;51.50;33.50;;;-1.00;29.10;;;;;;5038724;28;20503;-50
2022/01/11 11:23:24;;;;;;;57.23;34.27;;;-0.90;99.90;;;;;;5045925;28;20511;-50
2022/01/11 11:25:51;;;;;;;54.97;33.80;;;-0.90;99.90;;;;;;5046097;28;20473;-51
2022/01/11 11:28:21;;;;;;;55.60;34.60;;;-0.90;20.90;;;;;;5044107;28;20512;-52
2022/01/11 11:30:50;;;;;;;56.70;35.17;;;-0.90;29.40;;;;;;5038543;28;20974;-51
2022/01/11 11:33:18;;;;;;;51.27;32.77;;;-0.80;34.20;;;;;;5043837;28;20466;-51
2022/01/11 11:35:44;;;;;;;51.27;33.40;;;-0.80;26.30;;;;;;5037885;28;20952;-52
2022/01/11 11:38:13;;;;;;;52.40;34.50;;;-0.70;77.80;;;;;;5039472;28;20457;-52
2022/01/11 11:40:41;;;;;;;49.73;34.00;;;-0.70;34.40;;;;;;5042927;28;21162;-52
2022/01/11 11:43:10;;;;;;;51.17;33.90;;;-0.70;35.90;;;;;;5039156;28;20848;-50
2022/01/11 11:45:39;;;;;;;54.20;35.30;;;-0.80;29.20;;;;;;5038279;28;20481;-50
2022/01/11 11:48:08;;;;;;;56.57;36.33;;;-0.70;23.80;;;;;;5031777;28;20458;-51
2022/01/11 11:50:47;;;;;;;52.13;34.77;;;-0.70;32.80;;;;;;5032460;28;20473;-51
2022/01/11 11:53:23;;;;;;;52.43;32.77;;;-0.70;37.80;;;;;;5035137;28;20511;-50
2022/01/11 11:55:49;;;;;;;52.83;32.97;;;-0.70;34.30;;;;;;5040225;28;20451;-50
2022/01/11 11:58:20;;;;;;;56.70;34.43;;;-0.60;44.30;;;;;;5036601;28;20463;-50
2022/01/11 12:00:46;;;;;;;59.50;34.30;;;-0.50;41.00;;;;;;5030808;28;20504;-50
2022/01/11 12:03:20;;;;;;;50.73;33.80;;;-0.50;39.80;;;;;;5035228;28;20983;-51
2022/01/11 12:05:48;;;;;;;52.40;33.57;;;-0.40;38.50;;;;;;5032160;28;20519;-52
2022/01/11 12:08:36;;;;;;;57.43;34.60;;;-0.50;59.60;;;;;;5043487;28;20462;-51
2022/01/11 12:11:05;;;;;;;55.07;33.27;;;-0.50;43.50;;;;;;5037061;28;21035;-51
2022/01/11 12:13:48;;;;;;;61.03;32.13;;;-0.50;51.50;;;;;;5038186;28;20556;-51
2022/01/11 12:16:38;;;;;;;52.07;35.20;;;-0.50;62.10;;;;;;5040463;28;20481;-51
2022/01/11 12:19:06;;;;;;;52.37;33.47;;;-0.50;54.10;;;;;;5035857;28;20463;-52
2022/01/11 12:21:42;;;;;;;55.13;34.07;;;-0.50;54.40;;;;;;5035048;28;20492;-52
2022/01/11 12:24:10;;;;;;;52.67;33.13;;;-0.50;54.30;;;;;;5037830;28;20524;-50
2022/01/11 12:26:37;;;;;;;51.60;32.47;;;-0.50;49.00;;;;;;5034124;28;20481;-52
2022/01/11 12:29:26;;;;;;;55.30;33.70;;;-0.50;60.50;;;;;;5040229;28;20466;-52